Time;durP1;ratioP1;P1;durP2;ratioP2;P2;SDS_P1;SDS_P2;PMS_P1;PMS_P2;Temp;Humidity;BMP_temperature;BMP_pressure;BME280_temperature;BME280_humidity;BME280_pressure;Samples;Min_cycle;Max_cycle;Signal;HPM_P1;HPM_P2
2023/04/17 00:00:22;;;;;;;19.83;9.00;;;7.30;99.90;;;;;;5053887;28;20181;-72
2023/04/17 00:02:48;;;;;;;20.37;10.80;;;7.30;99.90;;;;;;5054180;28;20190;-72
2023/04/17 00:05:15;;;;;;;19.40;9.40;;;7.30;99.90;;;;;;5059031;28;20192;-72
2023/04/17 00:07:41;;;;;;;19.47;10.47;;;7.30;99.90;;;;;;5055899;28;20201;-72
2023/04/17 00:10:08;;;;;;;24.93;11.17;;;7.30;99.90;;;;;;5055930;28;20420;-71
2023/04/17 00:12:34;;;;;;;17.77;9.47;;;7.30;99.90;;;;;;5054065;28;20174;-71
2023/04/17 00:15:00;;;;;;;17.60;9.20;;;7.20;99.90;;;;;;5060809;28;20419;-71
2023/04/17 00:17:26;;;;;;;16.27;9.63;;;7.20;99.90;;;;;;5057215;28;21041;-71
2023/04/17 00:19:51;;;;;;;20.43;9.73;;;7.20;99.90;;;;;;5058062;28;20188;-72
2023/04/17 00:22:17;;;;;;;19.17;9.53;;;7.20;99.90;;;;;;5062448;28;20181;-72
2023/04/17 00:24:43;;;;;;;22.17;10.90;;;7.20;99.90;;;;;;5057431;28;20227;-71
2023/04/17 00:27:08;;;;;;;23.30;10.63;;;7.20;99.90;;;;;;5058720;28;20181;-71
2023/04/17 00:29:36;;;;;;;23.53;12.03;;;7.20;99.90;;;;;;5058968;28;20390;-72
2023/04/17 00:32:02;;;;;;;15.80;9.80;;;7.10;99.90;;;;;;5059552;28;20622;-72
2023/04/17 00:34:27;;;;;;;18.87;8.70;;;7.20;99.90;;;;;;5060430;28;20439;-72
2023/04/17 00:36:53;;;;;;;20.60;10.77;;;7.20;99.90;;;;;;5059965;28;20413;-71
2023/04/17 00:39:19;;;;;;;22.33;10.80;;;7.20;99.90;;;;;;5060534;28;20200;-71
2023/04/17 00:41:45;;;;;;;17.03;8.50;;;7.20;99.90;;;;;;5060097;28;20573;-71
2023/04/17 00:44:10;;;;;;;22.77;9.73;;;7.20;99.90;;;;;;5057811;28;20185;-71
2023/04/17 00:46:36;;;;;;;17.70;8.60;;;7.20;99.90;;;;;;5059213;28;20189;-71
2023/04/17 00:49:03;;;;;;;16.00;9.20;;;7.20;99.90;;;;;;5053367;28;20343;-71
2023/04/17 00:51:29;;;;;;;21.37;11.17;;;7.20;99.90;;;;;;5058491;28;20526;-71
2023/04/17 00:53:55;;;;;;;20.83;10.93;;;7.20;99.90;;;;;;5063926;28;20422;-71
2023/04/17 00:56:21;;;;;;;20.83;9.83;;;7.20;99.90;;;;;;5064029;28;20269;-72
2023/04/17 00:58:47;;;;;;;26.70;11.50;;;7.20;99.90;;;;;;5063946;28;20900;-72
2023/04/17 01:01:13;;;;;;;17.07;9.83;;;7.20;99.90;;;;;;5061323;28;20483;-71
2023/04/17 01:03:39;;;;;;;13.70;8.20;;;7.20;99.90;;;;;;5062649;28;20853;-72
2023/04/17 01:06:05;;;;;;;24.33;12.27;;;7.20;99.90;;;;;;5061093;28;20634;-72
2023/04/17 01:08:41;;;;;;;21.30;10.10;;;7.20;99.90;;;;;;5058945;28;20201;-72
2023/04/17 01:11:08;;;;;;;17.20;9.40;;;7.20;99.90;;;;;;5061472;28;20779;-72
2023/04/17 01:13:34;;;;;;;21.93;10.20;;;7.20;99.90;;;;;;5060374;28;20420;-72
2023/04/17 01:15:59;;;;;;;19.60;10.47;;;7.20;99.90;;;;;;5061918;28;20426;-72
2023/04/17 01:18:25;;;;;;;20.30;10.20;;;7.30;99.90;;;;;;5063034;28;20431;-72
2023/04/17 01:20:51;;;;;;;26.87;11.13;;;7.20;99.90;;;;;;5065507;28;20201;-72
2023/04/17 01:23:16;;;;;;;27.80;10.73;;;7.20;99.90;;;;;;5059822;28;20188;-72
2023/04/17 01:25:42;;;;;;;20.50;10.43;;;7.20;99.90;;;;;;5066339;28;20177;-72
2023/04/17 01:28:08;;;;;;;16.70;8.80;;;7.20;99.90;;;;;;5055200;28;20743;-72
2023/04/17 01:30:34;;;;;;;17.40;9.73;;;7.20;99.90;;;;;;5061146;28;20268;-72
2023/04/17 01:32:59;;;;;;;20.10;9.90;;;7.20;99.90;;;;;;5062058;28;20553;-72
2023/04/17 01:35:25;;;;;;;29.33;10.87;;;7.20;99.90;;;;;;5062411;28;20182;-72
2023/04/17 01:37:51;;;;;;;16.30;8.40;;;7.20;99.90;;;;;;5057207;28;20255;-72
2023/04/17 01:40:16;;;;;;;18.13;8.50;;;7.10;99.90;;;;;;5063115;28;20197;-72
2023/04/17 01:42:42;;;;;;;15.53;9.60;;;7.20;99.90;;;;;;5059507;28;20250;-72
2023/04/17 01:45:08;;;;;;;20.83;9.17;;;7.20;99.90;;;;;;5056737;28;20203;-72
2023/04/17 01:47:34;;;;;;;20.63;10.30;;;7.20;99.90;;;;;;5060080;28;20574;-72
2023/04/17 01:50:00;;;;;;;14.70;7.33;;;7.20;99.90;;;;;;5057498;28;20416;-72
2023/04/17 01:52:25;;;;;;;19.20;8.43;;;7.20;99.90;;;;;;5060018;28;20235;-72
2023/04/17 01:54:51;;;;;;;23.43;9.60;;;7.10;99.90;;;;;;5057082;28;20327;-72
2023/04/17 01:57:16;;;;;;;26.10;11.57;;;7.10;99.90;;;;;;5056369;28;20188;-72
2023/04/17 01:59:42;;;;;;;20.03;10.40;;;7.10;99.90;;;;;;5055717;28;20299;-72
2023/04/17 02:02:08;;;;;;;20.07;10.50;;;7.20;99.90;;;;;;5062222;28;20189;-72
2023/04/17 02:04:33;;;;;;;18.17;9.00;;;7.20;99.90;;;;;;5063209;28;20651;-72
2023/04/17 02:06:59;;;;;;;21.90;9.40;;;7.20;99.90;;;;;;5056450;28;20220;-72
2023/04/17 02:09:25;;;;;;;18.63;7.67;;;7.10;99.90;;;;;;5059026;28;20534;-72
2023/04/17 02:11:51;;;;;;;20.27;9.47;;;7.20;99.90;;;;;;5054159;28;20174;-72
2023/04/17 02:14:17;;;;;;;18.67;9.10;;;7.20;99.90;;;;;;5055421;28;20420;-72
2023/04/17 02:16:44;;;;;;;17.90;9.43;;;7.10;99.90;;;;;;5059790;28;20627;-72
2023/04/17 02:19:10;;;;;;;17.50;8.53;;;7.10;99.90;;;;;;5058762;28;20634;-72
2023/04/17 02:21:36;;;;;;;22.73;9.73;;;7.20;99.90;;;;;;5059088;28;20451;-72
2023/04/17 02:24:01;;;;;;;26.83;11.63;;;7.10;99.90;;;;;;5058698;28;20519;-72
2023/04/17 02:26:27;;;;;;;21.53;8.90;;;7.10;99.90;;;;;;5063599;28;20742;-72
2023/04/17 02:28:52;;;;;;;19.67;10.07;;;7.10;99.90;;;;;;5057599;28;20228;-72
2023/04/17 02:31:18;;;;;;;14.17;8.60;;;7.10;99.90;;;;;;5064145;28;20205;-72
2023/04/17 02:33:44;;;;;;;17.93;9.17;;;7.10;99.90;;;;;;5059018;28;20206;-72
2023/04/17 02:36:09;;;;;;;17.50;8.60;;;7.10;99.90;;;;;;5056132;28;20231;-72
2023/04/17 02:38:36;;;;;;;18.20;8.20;;;7.10;99.90;;;;;;5066005;28;20277;-72
2023/04/17 02:41:03;;;;;;;23.63;9.90;;;7.10;99.90;;;;;;5058268;28;20190;-71
2023/04/17 02:43:28;;;;;;;25.00;9.30;;;7.10;99.90;;;;;;5056016;28;20904;-71
2023/04/17 02:45:54;;;;;;;17.07;8.73;;;7.10;99.90;;;;;;5060235;28;20435;-71
2023/04/17 02:48:20;;;;;;;18.10;8.87;;;7.10;99.90;;;;;;5060168;28;20216;-72
2023/04/17 02:50:45;;;;;;;18.87;8.93;;;7.10;99.90;;;;;;5058135;28;20189;-72
2023/04/17 02:53:11;;;;;;;17.10;8.20;;;7.10;99.90;;;;;;5059508;28;20181;-72
2023/04/17 02:55:37;;;;;;;20.57;8.80;;;7.10;99.90;;;;;;5057019;28;20251;-72
2023/04/17 02:58:02;;;;;;;15.50;8.47;;;7.10;99.90;;;;;;5058768;28;20188;-72
2023/04/17 03:00:28;;;;;;;25.77;10.47;;;7.10;99.90;;;;;;5054420;28;20186;-72
2023/04/17 03:02:54;;;;;;;23.00;9.03;;;7.10;99.90;;;;;;5058862;28;20173;-72
2023/04/17 03:05:22;;;;;;;16.67;9.30;;;7.00;99.90;;;;;;5039968;23;20239;-72
2023/04/17 03:07:48;;;;;;;15.73;8.80;;;7.10;99.90;;;;;;4997265;28;20207;-72
2023/04/17 03:10:14;;;;;;;23.30;10.00;;;7.10;99.90;;;;;;5000257;28;20430;-72
2023/04/17 03:12:40;;;;;;;21.80;10.30;;;7.10;99.90;;;;;;5000338;28;20427;-72
2023/04/17 03:15:06;;;;;;;25.77;10.20;;;7.10;99.90;;;;;;4998640;28;20249;-72
2023/04/17 03:17:32;;;;;;;24.40;11.50;;;7.10;99.90;;;;;;4999697;28;20183;-71
2023/04/17 03:19:58;;;;;;;22.93;10.20;;;7.10;99.90;;;;;;4997389;28;20422;-71
2023/04/17 03:22:23;;;;;;;18.10;9.97;;;7.10;99.90;;;;;;4998361;28;20778;-72
2023/04/17 03:24:49;;;;;;;23.20;10.40;;;7.10;99.90;;;;;;5001595;28;21518;-72
2023/04/17 03:27:14;;;;;;;22.77;9.27;;;7.00;99.90;;;;;;4996284;28;20226;-72
2023/04/17 03:29:40;;;;;;;17.73;10.03;;;7.00;99.90;;;;;;4998956;28;20207;-72
2023/04/17 03:32:06;;;;;;;25.87;10.13;;;7.10;99.90;;;;;;4996891;28;20325;-72
2023/04/17 03:34:31;;;;;;;21.60;11.23;;;7.00;99.90;;;;;;4996299;28;20179;-72
2023/04/17 03:36:57;;;;;;;21.70;10.63;;;7.10;99.90;;;;;;5000326;28;20176;-72
2023/04/17 03:39:23;;;;;;;33.03;11.17;;;7.10;99.90;;;;;;4998032;28;20663;-72
2023/04/17 03:41:49;;;;;;;19.67;10.47;;;7.10;99.90;;;;;;4995400;28;20426;-72
2023/04/17 03:44:16;;;;;;;20.20;9.87;;;7.00;99.90;;;;;;4999713;28;20183;-72
2023/04/17 03:46:41;;;;;;;20.00;9.87;;;7.00;99.90;;;;;;4998110;28;20189;-72
2023/04/17 03:49:07;;;;;;;21.73;9.87;;;7.00;99.90;;;;;;5001085;28;20465;-72
2023/04/17 03:51:33;;;;;;;23.10;10.70;;;7.00;99.90;;;;;;4999911;28;20267;-72
2023/04/17 03:53:58;;;;;;;16.40;9.43;;;7.00;99.90;;;;;;4993067;28;20175;-72
2023/04/17 03:56:24;;;;;;;22.27;10.60;;;7.10;99.90;;;;;;4993947;28;20631;-72
2023/04/17 03:58:50;;;;;;;19.60;9.93;;;7.10;99.90;;;;;;4994258;28;20550;-72
2023/04/17 04:01:16;;;;;;;25.27;10.40;;;7.10;99.90;;;;;;5000206;28;20447;-72
2023/04/17 04:03:41;;;;;;;25.10;10.90;;;7.00;99.90;;;;;;5003766;28;20179;-72
2023/04/17 04:06:07;;;;;;;24.43;9.67;;;7.10;99.90;;;;;;4996359;28;20204;-72
2023/04/17 04:08:33;;;;;;;17.67;9.73;;;7.00;99.90;;;;;;4993857;28;20235;-72
2023/04/17 04:11:00;;;;;;;27.87;10.97;;;7.00;99.90;;;;;;4994024;28;20502;-72
2023/04/17 04:13:25;;;;;;;21.20;9.37;;;7.10;99.90;;;;;;4996527;28;20258;-72
2023/04/17 04:15:51;;;;;;;18.03;10.83;;;7.00;99.90;;;;;;5001280;28;20517;-72
2023/04/17 04:18:17;;;;;;;21.23;11.10;;;7.00;99.90;;;;;;4998591;28;20258;-72
2023/04/17 04:20:44;;;;;;;19.07;9.37;;;7.00;99.90;;;;;;4997763;28;20187;-72
2023/04/17 04:23:09;;;;;;;23.90;10.80;;;7.00;99.90;;;;;;4998028;28;20179;-72
2023/04/17 04:25:35;;;;;;;22.27;10.53;;;7.10;99.90;;;;;;5002347;28;20740;-72
2023/04/17 04:28:01;;;;;;;21.80;11.60;;;7.00;99.90;;;;;;4997856;28;20201;-72
2023/04/17 04:30:29;;;;;;;22.00;9.80;;;7.00;99.90;;;;;;5000926;28;20175;-72
2023/04/17 04:32:55;;;;;;;20.80;8.70;;;7.00;99.90;;;;;;4998742;28;20433;-72
2023/04/17 04:35:24;;;;;;;25.10;11.30;;;7.00;99.90;;;;;;5000054;28;20423;-72
2023/04/17 04:37:53;;;;;;;22.73;11.03;;;7.00;99.90;;;;;;5001874;28;20502;-72
2023/04/17 04:40:20;;;;;;;22.43;10.10;;;7.00;99.90;;;;;;5002452;28;20430;-72
2023/04/17 04:42:48;;;;;;;23.73;9.97;;;7.10;99.90;;;;;;5000269;28;20429;-72
2023/04/17 04:45:15;;;;;;;28.97;11.73;;;7.00;99.90;;;;;;5000087;28;20768;-72
2023/04/17 04:47:41;;;;;;;24.17;11.13;;;7.00;99.90;;;;;;4999667;28;20423;-72
2023/04/17 04:50:08;;;;;;;24.87;11.40;;;7.00;99.90;;;;;;5000911;28;20431;-72
2023/04/17 04:52:34;;;;;;;21.37;10.20;;;7.00;99.90;;;;;;5002549;28;20434;-72
2023/04/17 04:55:00;;;;;;;20.63;10.03;;;7.00;99.90;;;;;;4999319;28;20423;-72
2023/04/17 04:57:26;;;;;;;20.83;10.30;;;7.00;99.90;;;;;;4999192;28;20427;-72
2023/04/17 04:59:52;;;;;;;35.70;10.60;;;7.00;99.90;;;;;;5002364;28;20497;-72
2023/04/17 05:02:18;;;;;;;22.60;9.67;;;7.00;99.90;;;;;;5000242;28;20671;-72
2023/04/17 05:04:43;;;;;;;22.50;10.90;;;7.00;99.90;;;;;;4999773;28;20434;-72
2023/04/17 05:07:09;;;;;;;18.23;8.90;;;6.90;99.90;;;;;;5002411;28;20186;-72
2023/04/17 05:09:35;;;;;;;18.67;9.70;;;7.00;99.90;;;;;;4997338;28;20222;-72
2023/04/17 05:12:01;;;;;;;24.87;10.10;;;7.00;99.90;;;;;;4999697;28;20180;-72
2023/04/17 05:14:27;;;;;;;20.90;9.17;;;7.00;99.90;;;;;;5003216;28;20520;-72
2023/04/17 05:16:54;;;;;;;16.50;8.40;;;7.00;99.90;;;;;;5000186;28;20226;-70
2023/04/17 05:19:20;;;;;;;16.83;9.67;;;7.00;99.90;;;;;;4995679;28;20190;-71
2023/04/17 05:21:46;;;;;;;20.80;9.83;;;7.10;99.90;;;;;;5001891;28;20426;-71
2023/04/17 05:24:11;;;;;;;20.37;9.63;;;7.10;99.90;;;;;;5001228;28;20426;-70
2023/04/17 05:26:37;;;;;;;21.40;10.03;;;7.10;99.90;;;;;;4999503;28;20192;-70
2023/04/17 05:29:03;;;;;;;18.93;9.63;;;7.00;99.90;;;;;;5003720;28;20639;-71
2023/04/17 05:31:28;;;;;;;18.67;8.40;;;7.10;99.90;;;;;;5006187;28;20266;-71
2023/04/17 05:33:54;;;;;;;21.50;9.60;;;7.10;99.90;;;;;;5002375;28;20184;-71
2023/04/17 05:36:21;;;;;;;20.50;8.57;;;7.10;99.90;;;;;;4998286;28;20242;-71
2023/04/17 05:38:46;;;;;;;15.90;7.57;;;7.10;99.90;;;;;;4995669;28;20184;-71
2023/04/17 05:41:12;;;;;;;16.60;8.13;;;7.20;99.90;;;;;;4999190;28;20433;-71
2023/04/17 05:43:38;;;;;;;18.90;9.40;;;7.20;99.90;;;;;;5004089;28;20215;-71
2023/04/17 05:46:03;;;;;;;27.13;8.83;;;7.10;99.90;;;;;;5000852;28;20186;-71
2023/04/17 05:48:30;;;;;;;18.07;8.80;;;7.10;99.90;;;;;;4999072;28;20211;-71
2023/04/17 05:50:55;;;;;;;16.20;9.37;;;7.10;99.90;;;;;;4993800;28;20234;-71
2023/04/17 05:53:21;;;;;;;18.73;8.57;;;7.10;99.90;;;;;;4999345;28;20430;-71
2023/04/17 05:55:46;;;;;;;18.27;9.10;;;7.10;99.90;;;;;;4997110;28;20202;-71
2023/04/17 05:58:12;;;;;;;19.07;7.63;;;7.10;99.90;;;;;;4998326;28;20544;-71
2023/04/17 06:00:39;;;;;;;18.60;9.03;;;7.10;99.90;;;;;;4996183;28;21008;-71
2023/04/17 06:03:05;;;;;;;19.03;10.30;;;7.10;99.90;;;;;;4997160;28;20203;-71
2023/04/17 06:05:31;;;;;;;19.83;9.20;;;7.10;99.90;;;;;;5003765;28;20435;-71
2023/04/17 06:07:56;;;;;;;16.67;8.70;;;7.10;99.90;;;;;;4999738;28;20808;-71
2023/04/17 06:10:22;;;;;;;30.57;9.03;;;7.20;99.90;;;;;;5002670;28;21726;-71
2023/04/17 06:12:47;;;;;;;18.43;9.00;;;7.30;99.90;;;;;;5002829;28;20179;-71
2023/04/17 06:15:13;;;;;;;14.93;8.80;;;7.10;99.90;;;;;;4996072;28;20825;-71
2023/04/17 06:17:39;;;;;;;20.30;8.37;;;7.10;99.90;;;;;;4998607;28;20226;-71
2023/04/17 06:20:09;;;;;;;21.80;9.33;;;7.20;99.90;;;;;;4997414;28;20649;-71
2023/04/17 06:22:35;;;;;;;20.37;9.13;;;7.10;99.90;;;;;;5004243;28;20921;-71
2023/04/17 06:25:02;;;;;;;18.23;8.90;;;7.20;99.90;;;;;;4999369;28;20423;-71
2023/04/17 06:27:27;;;;;;;22.63;8.57;;;7.20;99.90;;;;;;5000830;28;20430;-71
2023/04/17 06:29:53;;;;;;;25.13;8.33;;;7.20;99.90;;;;;;5001378;28;20468;-71
2023/04/17 06:32:19;;;;;;;18.30;8.10;;;7.20;99.90;;;;;;5005162;28;21699;-71
2023/04/17 06:34:44;;;;;;;15.17;8.17;;;7.20;99.90;;;;;;4998841;28;20729;-71
2023/04/17 06:37:10;;;;;;;19.30;8.47;;;7.20;99.90;;;;;;4991625;28;20192;-71
2023/04/17 06:39:36;;;;;;;24.97;8.87;;;7.20;99.90;;;;;;4994783;28;20193;-71
2023/04/17 06:42:01;;;;;;;15.47;7.27;;;7.20;99.90;;;;;;4995058;28;20290;-71
2023/04/17 06:44:27;;;;;;;21.40;8.67;;;7.30;99.90;;;;;;4999521;28;20184;-71
2023/04/17 06:46:53;;;;;;;19.33;7.53;;;7.30;99.90;;;;;;4992013;28;20200;-71
2023/04/17 06:49:19;;;;;;;12.80;6.97;;;7.30;99.90;;;;;;4994329;28;20742;-71
2023/04/17 06:51:46;;;;;;;16.00;6.10;;;7.30;99.90;;;;;;4996420;28;20191;-71
2023/04/17 06:54:12;;;;;;;17.20;7.00;;;7.40;99.90;;;;;;4992431;28;20465;-71
2023/04/17 06:56:39;;;;;;;20.20;6.30;;;7.40;99.90;;;;;;4995467;28;20770;-71
2023/04/17 06:59:05;;;;;;;12.97;7.60;;;7.30;99.90;;;;;;4996780;28;20447;-71
2023/04/17 07:01:31;;;;;;;13.17;7.30;;;7.40;99.90;;;;;;4994746;28;20470;-71
2023/04/17 07:03:57;;;;;;;14.10;8.23;;;7.40;99.90;;;;;;4999398;28;20431;-71
2023/04/17 07:06:23;;;;;;;14.00;6.97;;;7.40;99.90;;;;;;5001501;28;20473;-71
2023/04/17 07:08:49;;;;;;;28.23;7.57;;;7.40;99.90;;;;;;4997754;28;20298;-71
2023/04/17 07:11:15;;;;;;;14.53;6.90;;;7.40;99.90;;;;;;5001444;28;20518;-71
2023/04/17 07:13:40;;;;;;;12.67;6.33;;;7.30;99.90;;;;;;4998079;28;20528;-70
2023/04/17 07:16:07;;;;;;;13.43;6.10;;;7.40;99.90;;;;;;4994522;28;20796;-70
2023/04/17 07:18:32;;;;;;;9.03;5.40;;;7.40;99.90;;;;;;4991698;28;20184;-70
2023/04/17 07:20:58;;;;;;;13.20;5.90;;;7.40;99.90;;;;;;4990648;28;20498;-69
2023/04/17 07:23:23;;;;;;;18.60;5.73;;;7.40;99.90;;;;;;4989488;28;20263;-69
2023/04/17 07:25:49;;;;;;;9.37;6.00;;;7.40;99.90;;;;;;4994321;28;20241;-69
2023/04/17 07:28:15;;;;;;;13.23;5.70;;;7.30;99.90;;;;;;5001692;28;20216;-70
2023/04/17 07:30:41;;;;;;;15.47;6.60;;;7.40;99.90;;;;;;4993089;28;20445;-70
2023/04/17 07:33:07;;;;;;;17.37;7.73;;;7.30;99.90;;;;;;5000186;28;20282;-70
2023/04/17 07:35:33;;;;;;;13.60;7.17;;;7.30;99.90;;;;;;5002031;28;20305;-69
2023/04/17 07:38:00;;;;;;;15.03;6.80;;;7.30;99.90;;;;;;4992999;28;20188;-69
2023/04/17 07:40:26;;;;;;;12.03;6.47;;;7.30;99.90;;;;;;4989015;28;20188;-70
2023/04/17 07:42:53;;;;;;;12.13;7.03;;;7.30;99.90;;;;;;4996825;28;20430;-70
2023/04/17 07:45:18;;;;;;;16.93;6.93;;;7.40;99.90;;;;;;4990026;28;20477;-70
2023/04/17 07:47:45;;;;;;;10.30;5.97;;;7.40;99.90;;;;;;4986555;28;20447;-70
2023/04/17 07:50:11;;;;;;;13.20;6.00;;;7.40;99.90;;;;;;4987550;28;20190;-70
2023/04/17 07:52:36;;;;;;;14.33;5.83;;;7.30;99.90;;;;;;4987251;28;20427;-70
2023/04/17 07:55:02;;;;;;;9.30;5.73;;;7.50;99.90;;;;;;4993358;28;20546;-70
2023/04/17 07:57:28;;;;;;;17.20;8.60;;;7.40;99.90;;;;;;4987493;28;20761;-70
2023/04/17 07:59:54;;;;;;;11.20;5.57;;;7.40;99.90;;;;;;4992057;28;20317;-70
2023/04/17 08:02:20;;;;;;;16.20;7.40;;;7.30;99.90;;;;;;4993182;28;20552;-70
2023/04/17 08:04:46;;;;;;;16.13;7.93;;;7.40;99.90;;;;;;4994108;28;20657;-69
2023/04/17 08:07:11;;;;;;;18.87;7.13;;;7.40;99.90;;;;;;4998185;28;20245;-69
2023/04/17 08:09:38;;;;;;;10.77;6.27;;;7.30;99.90;;;;;;4997333;28;20540;-69
2023/04/17 08:12:04;;;;;;;11.13;6.73;;;7.40;99.90;;;;;;5000384;28;20274;-69
2023/04/17 08:14:30;;;;;;;9.33;5.40;;;7.40;99.90;;;;;;4994062;28;20794;-70
2023/04/17 08:16:56;;;;;;;11.17;6.03;;;7.50;99.90;;;;;;4995135;28;20434;-70
2023/04/17 08:19:21;;;;;;;11.13;5.33;;;7.50;99.90;;;;;;4988737;28;20187;-70
2023/04/17 08:21:48;;;;;;;11.90;6.57;;;7.60;99.90;;;;;;4990222;28;20463;-70
2023/04/17 08:24:14;;;;;;;13.07;5.43;;;7.70;99.90;;;;;;4994142;28;20272;-70
2023/04/17 08:26:40;;;;;;;10.03;5.63;;;7.70;99.90;;;;;;4999128;28;20510;-70
2023/04/17 08:29:06;;;;;;;11.30;5.60;;;7.70;99.90;;;;;;4997506;28;20223;-70
2023/04/17 08:31:35;;;;;;;12.40;5.00;;;7.70;99.90;;;;;;4996986;28;20453;-69
2023/04/17 08:34:01;;;;;;;8.23;4.40;;;7.70;99.90;;;;;;4993948;28;20175;-70
2023/04/17 08:36:27;;;;;;;8.27;3.57;;;7.70;99.90;;;;;;4992189;28;20419;-70
2023/04/17 08:38:53;;;;;;;12.23;5.07;;;7.70;99.90;;;;;;4996238;28;20439;-70
2023/04/17 08:41:21;;;;;;;6.57;3.90;;;7.70;99.90;;;;;;4994891;28;20500;-70
2023/04/17 08:43:52;;;;;;;8.10;4.50;;;7.80;99.90;;;;;;4997866;28;20179;-70
2023/04/17 08:46:21;;;;;;;9.33;4.30;;;7.90;99.90;;;;;;4994503;28;20449;-70
2023/04/17 08:48:46;;;;;;;8.47;4.97;;;7.90;99.90;;;;;;4993845;28;20478;-71
2023/04/17 08:51:13;;;;;;;9.27;3.80;;;8.00;99.90;;;;;;4995140;28;20422;-71
2023/04/17 08:53:38;;;;;;;10.87;4.83;;;8.00;99.90;;;;;;4995140;28;20191;-71
2023/04/17 08:56:05;;;;;;;9.47;3.90;;;8.10;99.90;;;;;;4995114;28;20422;-71
2023/04/17 08:58:35;;;;;;;6.83;3.07;;;8.20;99.90;;;;;;4999165;28;20498;-71
2023/04/17 09:01:11;;;;;;;9.10;4.30;;;8.20;99.90;;;;;;4997924;28;20460;-71
2023/04/17 09:03:42;;;;;;;9.63;2.83;;;8.10;99.90;;;;;;4995142;28;20561;-70
2023/04/17 09:06:10;;;;;;;5.40;3.57;;;8.10;99.90;;;;;;4991986;28;20444;-71
2023/04/17 09:08:36;;;;;;;6.07;3.90;;;8.10;99.90;;;;;;4991842;28;20470;-70
2023/04/17 09:11:02;;;;;;;8.10;2.87;;;8.10;99.90;;;;;;4996736;28;20434;-70
2023/04/17 09:13:29;;;;;;;5.73;3.30;;;8.10;99.90;;;;;;4997618;28;20426;-70
2023/04/17 09:16:08;;;;;;;4.87;2.50;;;8.10;99.90;;;;;;4996432;28;20267;-71
2023/04/17 09:18:35;;;;;;;7.23;3.90;;;8.20;99.90;;;;;;5008781;28;20488;-70
2023/04/17 09:21:02;;;;;;;7.20;2.90;;;8.20;99.90;;;;;;4999939;28;20449;-70
2023/04/17 09:23:30;;;;;;;13.33;3.73;;;8.10;99.90;;;;;;4996930;28;20711;-70
2023/04/17 09:26:14;;;;;;;16.40;4.23;;;8.20;99.90;;;;;;4995489;28;20895;-70
2023/04/17 09:28:42;;;;;;;8.87;3.63;;;8.10;99.90;;;;;;4999454;28;20538;-70
2023/04/17 09:31:17;;;;;;;6.60;3.60;;;8.20;99.90;;;;;;4995730;28;20419;-70
2023/04/17 09:34:15;;;;;;;7.43;3.70;;;8.20;99.90;;;;;;5002691;28;20428;-70
2023/04/17 09:36:42;;;;;;;5.50;3.00;;;8.20;99.90;;;;;;4962154;28;20965;-71
2023/04/17 09:39:19;;;;;;;6.40;3.20;;;8.30;99.90;;;;;;4998017;28;20453;-71
2023/04/17 09:41:45;;;;;;;6.90;4.07;;;8.30;99.90;;;;;;4994592;28;20449;-71
2023/04/17 09:44:18;;;;;;;5.80;3.73;;;8.30;99.90;;;;;;4997509;28;20423;-71
2023/04/17 09:46:47;;;;;;;8.97;4.40;;;8.40;99.90;;;;;;4999034;28;20790;-69
2023/04/17 09:49:41;;;;;;;10.00;3.33;;;8.40;99.90;;;;;;4999453;28;20466;-69
2023/04/17 09:52:07;;;;;;;5.90;3.50;;;8.40;99.90;;;;;;4991571;28;20455;-69
2023/04/17 09:54:36;;;;;;;4.63;3.23;;;8.40;99.90;;;;;;4992321;28;20466;-69
2023/04/17 09:57:05;;;;;;;7.10;3.30;;;8.50;99.90;;;;;;4996841;28;20919;-69
2023/04/17 09:59:31;;;;;;;9.27;3.57;;;8.50;99.90;;;;;;4991803;28;20442;-71
2023/04/17 10:01:57;;;;;;;6.23;3.40;;;8.70;99.90;;;;;;5001196;28;20426;-68
2023/04/17 10:04:22;;;;;;;4.77;2.50;;;8.70;99.90;;;;;;5002481;28;20477;-68
2023/04/17 10:06:49;;;;;;;3.93;1.93;;;8.70;99.90;;;;;;4997641;28;20266;-68
2023/04/17 10:09:14;;;;;;;8.60;3.13;;;8.80;99.90;;;;;;4992511;28;20212;-69
2023/04/17 10:11:43;;;;;;;3.93;2.23;;;9.00;99.90;;;;;;4992223;28;20805;-68
2023/04/17 10:14:09;;;;;;;6.77;2.73;;;8.80;99.90;;;;;;4998576;28;20206;-68
2023/04/17 10:16:41;;;;;;;5.73;2.87;;;9.00;99.90;;;;;;4997304;28;20426;-68
2023/04/17 10:19:27;;;;;;;4.00;2.47;;;9.00;99.90;;;;;;4997215;28;20432;-68
2023/04/17 10:22:14;;;;;;;3.30;1.87;;;9.00;99.90;;;;;;4992217;28;20446;-68
2023/04/17 10:24:50;;;;;;;6.03;3.17;;;9.00;99.90;;;;;;4999162;28;21216;-68
2023/04/17 10:27:25;;;;;;;5.87;3.27;;;9.00;99.90;;;;;;4993323;28;20452;-68
2023/04/17 10:29:52;;;;;;;4.63;2.50;;;9.10;99.90;;;;;;4996694;28;20536;-68
2023/04/17 10:32:19;;;;;;;3.70;2.40;;;9.10;99.90;;;;;;4992505;28;20434;-68
2023/04/17 10:34:45;;;;;;;8.00;2.87;;;9.30;99.90;;;;;;4995206;28;20761;-68
2023/04/17 10:37:14;;;;;;;6.30;2.37;;;9.30;99.90;;;;;;4993426;28;20890;-68
2023/04/17 10:40:00;;;;;;;9.10;2.10;;;9.40;99.90;;;;;;4995576;28;20429;-73
2023/04/17 10:42:29;;;;;;;5.03;2.40;;;9.40;99.90;;;;;;4994432;28;20451;-73
2023/04/17 10:45:00;;;;;;;3.20;2.10;;;9.40;99.90;;;;;;4997508;28;20435;-73
2023/04/17 10:47:35;;;;;;;5.80;2.53;;;9.40;99.90;;;;;;4997583;28;20427;-73
2023/04/17 10:50:02;;;;;;;5.23;2.23;;;9.50;99.90;;;;;;4997309;28;20470;-73
2023/04/17 10:52:33;;;;;;;3.63;1.53;;;9.40;99.90;;;;;;4996653;28;20462;-73
2023/04/17 10:55:20;;;;;;;4.07;2.00;;;9.50;99.90;;;;;;4992278;28;20436;-73
2023/04/17 10:57:57;;;;;;;3.40;2.07;;;9.60;99.90;;;;;;4994310;28;20514;-72
2023/04/17 11:00:50;;;;;;;3.50;1.70;;;9.60;99.90;;;;;;5002020;28;20554;-72
2023/04/17 11:03:16;;;;;;;5.17;2.27;;;9.60;99.90;;;;;;4987663;28;20569;-73
2023/04/17 11:05:45;;;;;;;5.03;2.20;;;9.60;99.90;;;;;;4991662;28;20877;-73
2023/04/17 11:08:12;;;;;;;5.00;2.67;;;9.60;99.90;;;;;;4991925;28;20842;-73
2023/04/17 11:10:38;;;;;;;4.20;2.23;;;9.60;99.90;;;;;;4991213;28;20427;-75
2023/04/17 11:13:03;;;;;;;3.50;2.23;;;9.30;99.90;;;;;;4990856;28;20427;-73
2023/04/17 11:15:32;;;;;;;4.20;2.63;;;9.10;99.90;;;;;;4991349;28;20427;-73
2023/04/17 11:17:59;;;;;;;5.73;2.33;;;9.00;99.90;;;;;;4991499;28;20198;-73
2023/04/17 11:20:28;;;;;;;5.53;2.90;;;8.90;99.90;;;;;;4991596;28;21183;-73
2023/04/17 11:22:55;;;;;;;10.53;4.20;;;8.90;99.90;;;;;;4990206;28;20923;-73
2023/04/17 11:25:25;;;;;;;10.57;5.80;;;8.80;99.90;;;;;;4990655;28;20427;-73
2023/04/17 11:27:59;;;;;;;7.00;3.87;;;8.70;99.90;;;;;;4991330;28;20904;-73
2023/04/17 11:30:29;;;;;;;8.20;4.00;;;8.70;99.90;;;;;;4991519;28;20443;-74
2023/04/17 11:32:57;;;;;;;6.43;4.10;;;8.70;99.90;;;;;;4991711;28;20923;-74
2023/04/17 11:35:31;;;;;;;6.90;4.20;;;8.70;99.90;;;;;;4990664;28;20518;-74
2023/04/17 11:38:03;;;;;;;7.43;3.80;;;8.70;99.90;;;;;;4990800;28;20415;-74
2023/04/17 11:40:29;;;;;;;6.33;3.60;;;8.80;99.90;;;;;;4991014;28;20442;-73
2023/04/17 11:42:55;;;;;;;9.60;4.27;;;8.90;99.90;;;;;;4991995;28;20996;-73
2023/04/17 11:45:20;;;;;;;9.20;4.17;;;9.00;99.90;;;;;;4990348;28;20535;-73
2023/04/17 11:47:47;;;;;;;7.70;4.20;;;9.00;99.90;;;;;;4992493;28;20175;-73
2023/04/17 11:50:15;;;;;;;10.40;4.03;;;9.10;99.90;;;;;;4991096;28;20541;-73
2023/04/17 11:52:42;;;;;;;7.50;4.13;;;9.10;99.90;;;;;;4990882;28;20419;-73
2023/04/17 11:55:08;;;;;;;7.10;3.60;;;9.30;99.90;;;;;;4989855;28;20433;-73
2023/04/17 11:57:43;;;;;;;10.00;4.10;;;9.50;99.90;;;;;;4991514;28;20426;-73
2023/04/17 12:00:13;;;;;;;4.50;3.07;;;9.80;99.90;;;;;;4990623;28;21034;-73
2023/04/17 12:02:39;;;;;;;6.43;3.47;;;9.70;99.90;;;;;;4989810;28;20431;-71
2023/04/17 12:05:16;;;;;;;5.50;2.70;;;9.90;99.90;;;;;;4989186;28;20569;-71
2023/04/17 12:07:42;;;;;;;6.27;3.40;;;10.00;99.90;;;;;;4990288;28;20182;-71
2023/04/17 12:10:08;;;;;;;4.30;2.50;;;10.20;99.90;;;;;;4989827;28;20470;-71
2023/04/17 12:12:33;;;;;;;5.23;3.03;;;10.40;99.90;;;;;;4988847;28;20540;-71
2023/04/17 12:14:59;;;;;;;4.07;2.40;;;10.40;99.90;;;;;;4990783;28;20431;-71
2023/04/17 12:17:25;;;;;;;6.13;3.20;;;10.60;99.90;;;;;;4988941;28;20179;-72
2023/04/17 12:19:52;;;;;;;3.60;2.30;;;10.70;99.90;;;;;;4986750;28;20442;-72
2023/04/17 12:22:18;;;;;;;8.00;3.07;;;10.90;99.90;;;;;;4988584;28;20426;-72
2023/04/17 12:24:44;;;;;;;5.53;3.03;;;11.20;99.90;;;;;;4989931;28;20896;-72
2023/04/17 12:27:09;;;;;;;7.10;3.47;;;11.30;99.90;;;;;;4988900;28;20494;-72
2023/04/17 12:29:35;;;;;;;5.00;2.50;;;11.50;99.90;;;;;;4990496;28;20212;-72
2023/04/17 12:32:01;;;;;;;3.83;2.43;;;11.60;99.90;;;;;;4988178;28;20195;-72
2023/04/17 12:34:26;;;;;;;4.00;2.63;;;11.80;99.90;;;;;;4989687;28;20198;-72
2023/04/17 12:36:52;;;;;;;4.13;2.00;;;12.00;99.90;;;;;;4990959;28;20176;-72
2023/04/17 12:39:18;;;;;;;10.83;3.00;;;12.40;99.90;;;;;;4989866;28;20179;-71
2023/04/17 12:41:43;;;;;;;3.40;2.00;;;12.70;99.90;;;;;;4990359;28;20541;-72
2023/04/17 12:44:09;;;;;;;3.20;1.73;;;12.90;99.90;;;;;;4992110;28;20187;-71
2023/04/17 12:46:35;;;;;;;3.03;1.80;;;12.90;99.90;;;;;;4991654;28;20648;-71